Time;durP1;ratioP1;P1;durP2;ratioP2;P2;SDS_P1;SDS_P2;PMS_P1;PMS_P2;Temp;Humidity;BMP_temperature;BMP_pressure;BME280_temperature;BME280_humidity;BME280_pressure;Samples;Min_cycle;Max_cycle;Signal;HPM_P1;HPM_P2
2022/10/10 06:46:03;;;;;;;0.40;0.40;;;10.00;99.90;;;;;;5066410;28;20444;-74
2022/10/10 06:48:30;;;;;;;0.68;0.68;;;10.00;99.90;;;;;;5027166;28;20038;-72
2022/10/10 06:51:02;;;;;;;0.50;0.50;;;10.00;99.90;;;;;;5025962;28;20026;-73
2022/10/10 06:53:29;;;;;;;0.30;0.30;;;10.00;99.90;;;;;;5052110;28;20087;-73
2022/10/10 06:55:57;;;;;;;0.30;0.30;;;10.40;99.90;;;;;;5065609;28;20475;-74
2022/10/10 06:58:25;;;;;;;0.40;0.40;;;10.60;99.90;;;;;;5066826;28;20067;-73
2022/10/10 07:00:52;;;;;;;0.30;0.30;;;10.80;99.90;;;;;;5065198;28;20029;-73
2022/10/10 07:03:18;;;;;;;3.30;1.67;;;11.00;99.90;;;;;;5063925;28;20128;-73
2022/10/10 07:05:47;;;;;;;0.40;0.40;;;10.80;99.90;;;;;;5045350;28;20099;-73
2022/10/10 07:08:13;;;;;;;1.10;1.05;;;;;;;;;;5046837;28;20553;-73
2022/10/10 07:10:38;;;;;;;0.40;0.40;;;11.20;99.90;;;;;;5047032;28;20029;-72
2022/10/10 07:13:04;;;;;;;0.40;0.40;;;10.90;99.90;;;;;;5045243;28;20057;-73
2022/10/10 07:15:29;;;;;;;0.40;0.40;;;10.80;99.90;;;;;;5046864;28;20041;-72
2022/10/10 07:17:57;;;;;;;1.03;1.03;;;10.80;99.90;;;;;;5046606;28;20056;-73
2022/10/10 07:20:23;;;;;;;0.30;0.30;;;;;;;;;;5046809;28;20086;-72
2022/10/10 07:22:49;;;;;;;1.55;1.45;;;;;;;;;;5046369;28;20029;-74
2022/10/10 07:25:15;;;;;;;0.32;0.32;;;;;;;;;;5046559;28;20045;-72
2022/10/10 07:27:41;;;;;;;0.40;0.40;;;;;;;;;;5053565;28;20431;-74
2022/10/10 07:30:08;;;;;;;0.35;0.35;;;11.40;99.90;;;;;;5051194;28;20033;-74
2022/10/10 07:32:34;;;;;;;0.43;0.43;;;;;;;;;;5046425;28;20025;-73
2022/10/10 07:34:59;;;;;;;0.40;0.40;;;11.40;99.90;;;;;;5045856;28;20029;-72
2022/10/10 07:37:25;;;;;;;0.30;0.30;;;11.70;99.90;;;;;;5045203;28;20380;-74
2022/10/10 07:39:53;;;;;;;0.40;0.40;;;11.90;99.90;;;;;;5046352;28;20035;-72
2022/10/10 07:42:19;;;;;;;0.60;0.60;;;;;;;;;;5044821;28;20116;-73
2022/10/10 07:44:45;;;;;;;0.52;0.52;;;;;;;;;;5045631;28;20052;-73
2022/10/10 07:47:11;;;;;;;0.37;0.37;;;11.90;99.90;;;;;;5045808;28;20025;-73
2022/10/10 07:49:37;;;;;;;0.40;0.40;;;11.50;99.90;;;;;;5044423;28;20033;-72
2022/10/10 07:52:03;;;;;;;0.40;0.40;;;;;;;;;;5045768;28;20064;-72
2022/10/10 07:54:32;;;;;;;0.40;0.40;;;12.20;99.90;;;;;;5046367;28;20337;-72
2022/10/10 07:56:58;;;;;;;0.30;0.30;;;12.50;99.90;;;;;;5033407;28;20030;-74
2022/10/10 07:59:24;;;;;;;0.33;0.33;;;12.20;99.90;;;;;;5031053;28;20087;-73
2022/10/10 08:01:50;;;;;;;0.30;0.30;;;12.70;99.90;;;;;;5032514;28;20036;-72
2022/10/10 08:04:16;;;;;;;0.40;0.40;;;;;;;;;;5032322;28;20034;-72
2022/10/10 08:06:42;;;;;;;0.38;0.38;;;;;;;;;;5030815;28;20755;-73
2022/10/10 08:09:08;;;;;;;0.40;0.40;;;;;;;;;;5032451;28;20392;-72
2022/10/10 08:11:34;;;;;;;0.40;0.40;;;;;;;;;;5031224;28;20258;-74
2022/10/10 08:14:00;;;;;;;0.30;0.30;;;13.70;99.90;;;;;;5032074;28;20037;-76
2022/10/10 08:16:25;;;;;;;0.33;0.33;;;13.70;99.90;;;;;;5031958;28;20083;-73
2022/10/10 08:18:51;;;;;;;0.40;0.40;;;13.60;99.90;;;;;;5031939;28;20116;-73
2022/10/10 08:21:17;;;;;;;0.40;0.40;;;;;;;;;;5032118;28;20034;-73
2022/10/10 08:23:43;;;;;;;0.55;0.55;;;14.20;99.90;;;;;;5031847;28;20578;-74
2022/10/10 08:26:11;;;;;;;0.37;0.37;;;14.40;99.90;;;;;;5030427;28;20025;-73
2022/10/10 08:28:38;;;;;;;0.47;0.47;;;14.50;99.90;;;;;;5032262;28;20018;-73
2022/10/10 08:31:03;;;;;;;;;;;;;;;;;;5032353;28;20072;-73
2022/10/10 08:33:29;;;;;;;0.50;0.50;;;;;;;;;;5037098;28;19908;-73
2022/10/10 08:35:55;;;;;;;0.30;0.30;;;;;;;;;;5036854;28;20037;-74
2022/10/10 08:38:21;;;;;;;0.30;0.30;;;15.00;99.90;;;;;;5031910;28;20025;-73
2022/10/10 08:40:48;;;;;;;0.40;0.40;;;;;;;;;;5030302;28;20044;-72
2022/10/10 08:43:23;;;;;;;0.70;0.70;;;16.10;99.90;;;;;;5030057;28;20033;-74
2022/10/10 08:45:51;;;;;;;0.30;0.30;;;;;;;;;;5037503;28;20049;-73
2022/10/10 08:48:23;;;;;;;0.50;0.50;;;16.60;99.90;;;;;;5050070;28;20475;-73
2022/10/10 08:50:52;;;;;;;0.30;0.30;;;;;;;;;;5051728;28;20025;-73
2022/10/10 08:53:44;;;;;;;0.30;0.30;;;16.20;99.90;;;;;;5051232;28;20017;-73
2022/10/10 08:56:23;;;;;;;1.27;1.27;;;16.20;99.90;;;;;;5050685;28;20048;-72
2022/10/10 08:58:55;;;;;;;0.40;0.40;;;16.30;99.90;;;;;;5051192;28;20029;-71
2022/10/10 09:01:24;;;;;;;0.30;0.30;;;;;;;;;;5051475;28;20492;-73
2022/10/10 09:03:50;;;;;;;0.30;0.30;;;;;;;;;;5050246;28;20028;-73
2022/10/10 09:06:16;;;;;;;0.30;0.30;;;;;;;;;;5049488;28;20082;-72
2022/10/10 09:08:56;;;;;;;0.40;0.40;;;16.60;99.90;;;;;;5048512;28;20060;-72
2022/10/10 09:11:21;;;;;;;0.32;0.32;;;16.20;99.90;;;;;;5051299;28;20029;-74
2022/10/10 09:14:13;;;;;;;0.30;0.30;;;16.20;99.90;;;;;;5049675;28;20041;-74
2022/10/10 09:16:53;;;;;;;0.40;0.40;;;16.20;99.90;;;;;;5049748;28;20033;-72
2022/10/10 09:19:28;;;;;;;0.50;0.50;;;;;;;;;;5050086;28;20029;-72
2022/10/10 09:21:59;;;;;;;0.30;0.30;;;16.30;99.90;;;;;;5051148;28;20060;-73
2022/10/10 09:24:37;;;;;;;0.30;0.30;;;16.10;99.90;;;;;;5051153;28;20037;-73
2022/10/10 09:27:04;;;;;;;0.35;0.35;;;16.10;99.90;;;;;;5050740;28;20029;-73
2022/10/10 09:29:34;;;;;;;0.50;0.50;;;;;;;;;;5023448;28;20030;-72
2022/10/10 09:32:08;;;;;;;0.60;0.60;;;16.00;99.90;;;;;;5009530;28;20028;-72
2022/10/10 09:34:40;;;;;;;0.40;0.40;;;15.80;99.90;;;;;;5009482;28;20430;-72
2022/10/10 09:37:17;;;;;;;0.45;0.45;;;16.00;99.90;;;;;;5020679;28;20021;-71
2022/10/10 09:40:07;;;;;;;0.80;0.68;;;15.80;99.90;;;;;;5031016;28;20538;-70
2022/10/10 09:42:37;;;;;;;0.30;0.30;;;15.80;99.90;;;;;;5030411;28;20431;-72
2022/10/10 09:45:15;;;;;;;0.30;0.30;;;15.20;99.90;;;;;;5034800;28;20041;-72
2022/10/10 09:47:40;;;;;;;0.52;0.52;;;15.30;99.90;;;;;;5034538;28;20041;-72
2022/10/10 09:50:10;;;;;;;0.40;0.40;;;14.90;99.90;;;;;;5030215;28;20027;-73
2022/10/10 09:52:36;;;;;;;0.30;0.30;;;;;;;;;;5030258;28;20021;-73
2022/10/10 09:55:29;;;;;;;0.40;0.40;;;15.70;99.90;;;;;;5046914;28;20025;-72
2022/10/10 09:58:00;;;;;;;0.35;0.35;;;15.50;99.90;;;;;;5050407;28;20400;-73
2022/10/10 10:00:27;;;;;;;0.30;0.30;;;15.90;99.90;;;;;;5050074;28;20376;-73
2022/10/10 10:03:14;;;;;;;0.30;0.30;;;15.90;99.90;;;;;;5048607;28;20033;-72
2022/10/10 10:05:53;;;;;;;0.30;0.30;;;16.20;99.90;;;;;;5048485;28;20032;-72
2022/10/10 10:08:24;;;;;;;0.30;0.30;;;15.90;99.90;;;;;;5050191;28;20045;-72
2022/10/10 10:10:50;;;;;;;0.30;0.30;;;;;;;;;;5049190;28;20466;-72
2022/10/10 10:13:22;;;;;;;0.50;0.50;;;16.70;99.90;;;;;;5049952;28;20048;-72
2022/10/10 10:15:57;;;;;;;0.40;0.40;;;17.00;99.90;;;;;;5049669;28;20149;-73
2022/10/10 10:18:28;;;;;;;0.63;0.60;;;17.20;99.90;;;;;;5048317;28;20399;-74
2022/10/10 10:21:15;;;;;;;0.40;0.40;;;;;;;;;;5050013;28;20017;-73
2022/10/10 10:23:50;;;;;;;0.30;0.30;;;;;;;;;;5049438;28;20045;-74
2022/10/10 10:26:43;;;;;;;0.30;0.30;;;17.50;99.90;;;;;;5049844;28;20375;-73
2022/10/10 10:29:30;;;;;;;0.57;0.57;;;17.50;99.90;;;;;;5029311;28;20049;-74
2022/10/10 10:32:05;;;;;;;0.30;0.30;;;;;;;;;;5010315;28;20028;-73
2022/10/10 10:34:52;;;;;;;0.30;0.30;;;17.50;99.90;;;;;;5008513;28;20358;-74
2022/10/10 10:37:24;;;;;;;0.30;0.30;;;17.70;99.90;;;;;;5009991;28;20025;-72
2022/10/10 10:40:20;;;;;;;0.30;0.30;;;17.40;99.90;;;;;;5008603;28;20052;-73
2022/10/10 10:43:14;;;;;;;1.63;0.63;;;17.30;99.90;;;;;;5009776;28;20022;-73
2022/10/10 10:46:09;;;;;;;0.30;0.30;;;16.90;99.90;;;;;;5024514;28;20050;-73
2022/10/10 10:48:35;;;;;;;0.30;0.30;;;;;;;;;;5027667;28;20191;-72
2022/10/10 10:51:27;;;;;;;0.30;0.30;;;;;;;;;;5029512;28;20193;-72
2022/10/10 10:54:11;;;;;;;2.40;0.47;;;17.20;99.90;;;;;;5029409;28;20279;-73
2022/10/10 10:56:43;;;;;;;1.25;1.15;;;;;;;;;;5040684;28;20448;-73
2022/10/10 10:59:46;;;;;;;0.30;0.30;;;17.30;99.90;;;;;;5028321;28;20025;-72
2022/10/10 11:02:14;;;;;;;0.30;0.30;;;17.30;99.90;;;;;;5029944;28;20033;-72
2022/10/10 11:05:06;;;;;;;0.30;0.30;;;17.30;99.90;;;;;;5029941;28;20523;-72
2022/10/10 11:08:00;;;;;;;0.52;0.52;;;17.50;99.90;;;;;;5029351;28;20017;-74
2022/10/10 11:10:43;;;;;;;0.30;0.30;;;17.70;99.90;;;;;;5029421;28;20431;-72
2022/10/10 11:13:31;;;;;;;0.25;0.25;;;17.70;99.90;;;;;;5029372;28;20108;-72
2022/10/10 11:16:22;;;;;;;0.30;0.30;;;17.70;99.90;;;;;;5029409;28;20282;-72
2022/10/10 11:19:05;;;;;;;0.30;0.30;;;17.50;99.90;;;;;;5028090;28;20041;-72
2022/10/10 11:21:36;;;;;;;0.30;0.30;;;17.40;99.90;;;;;;5029491;28;20048;-71
2022/10/10 11:24:05;;;;;;;0.30;0.30;;;17.30;99.90;;;;;;5029365;28;20042;-74
2022/10/10 11:26:43;;;;;;;0.30;0.30;;;17.10;99.90;;;;;;5029248;28;20018;-74
2022/10/10 11:29:27;;;;;;;0.30;0.30;;;16.90;99.90;;;;;;5029619;28;20404;-72
2022/10/10 11:31:56;;;;;;;4.28;0.85;;;16.50;99.90;;;;;;5029909;28;20022;-73
2022/10/10 11:34:31;;;;;;;0.40;0.40;;;16.30;99.90;;;;;;5032617;28;20533;-73
2022/10/10 11:37:06;;;;;;;0.30;0.30;;;16.00;99.90;;;;;;5033522;28;20028;-71
2022/10/10 11:39:41;;;;;;;0.30;0.30;;;15.80;99.90;;;;;;5031952;28;20041;-72
2022/10/10 11:42:20;;;;;;;0.30;0.30;;;15.60;99.90;;;;;;5031527;28;20022;-73
2022/10/10 11:44:53;;;;;;;0.30;0.30;;;16.30;99.90;;;;;;5031239;28;20100;-72
2022/10/10 11:47:53;;;;;;;0.77;0.77;;;15.20;99.90;;;;;;5031514;28;20029;-72
2022/10/10 11:50:29;;;;;;;0.40;0.40;;;15.00;99.90;;;;;;5032620;28;20041;-72
2022/10/10 11:53:03;;;;;;;0.85;0.85;;;14.90;99.90;;;;;;5033091;28;20495;-72
2022/10/10 11:55:38;;;;;;;0.75;0.60;;;14.80;99.90;;;;;;5032687;28;20045;-73
2022/10/10 11:58:04;;;;;;;0.40;0.40;;;14.60;99.90;;;;;;5031016;28;20064;-73
2022/10/10 12:00:36;;;;;;;0.40;0.40;;;14.50;99.90;;;;;;5032389;28;20488;-72
2022/10/10 12:03:02;;;;;;;0.68;0.68;;;14.30;99.90;;;;;;5031263;28;20044;-72
2022/10/10 12:05:30;;;;;;;0.40;0.40;;;14.30;99.90;;;;;;5031437;28;20406;-74
2022/10/10 12:07:55;;;;;;;0.30;0.30;;;14.20;99.90;;;;;;5043215;28;20188;-72
2022/10/10 12:10:25;;;;;;;0.30;0.30;;;14.20;99.90;;;;;;5043037;28;20121;-73
2022/10/10 12:12:56;;;;;;;0.30;0.30;;;14.10;99.90;;;;;;5050933;28;20025;-72
2022/10/10 12:15:34;;;;;;;0.45;0.45;;;14.00;99.90;;;;;;5050822;28;20483;-72
2022/10/10 12:18:00;;;;;;;0.63;0.63;;;14.00;99.90;;;;;;5052166;28;20051;-72
2022/10/10 12:20:25;;;;;;;0.40;0.40;;;13.90;99.90;;;;;;5052104;28;20066;-72
2022/10/10 12:23:20;;;;;;;0.63;0.63;;;13.90;99.90;;;;;;5052032;28;20065;-73
2022/10/10 12:25:46;;;;;;;0.30;0.30;;;13.80;99.90;;;;;;5051692;28;20426;-73
2022/10/10 12:28:12;;;;;;;0.40;0.40;;;13.80;99.90;;;;;;5044937;28;20064;-72
2022/10/10 12:31:06;;;;;;;0.40;0.40;;;13.70;99.90;;;;;;5010691;28;20053;-72
2022/10/10 12:33:32;;;;;;;0.30;0.30;;;13.70;99.90;;;;;;5010672;28;20065;-73
2022/10/10 12:36:16;;;;;;;0.30;0.30;;;13.70;99.90;;;;;;5012024;28;20068;-72
2022/10/10 12:39:04;;;;;;;0.32;0.32;;;13.60;99.90;;;;;;5010525;28;20065;-72
2022/10/10 12:41:49;;;;;;;0.30;0.30;;;13.60;99.90;;;;;;5010974;28;20037;-72
2022/10/10 12:44:40;;;;;;;1.00;0.93;;;13.60;99.90;;;;;;5022671;28;20109;-73
2022/10/10 12:47:14;;;;;;;0.30;0.30;;;13.60;99.90;;;;;;5031635;28;20466;-71
2022/10/10 12:49:58;;;;;;;0.30;0.30;;;13.60;99.90;;;;;;5032065;28;20444;-72
2022/10/10 12:52:44;;;;;;;0.30;0.30;;;13.60;99.90;;;;;;5031776;28;20022;-72
2022/10/10 12:55:22;;;;;;;0.43;0.43;;;13.50;99.90;;;;;;5029845;28;20033;-72
2022/10/10 12:57:51;;;;;;;0.30;0.30;;;13.50;99.90;;;;;;5031397;28;20025;-73
2022/10/10 13:00:20;;;;;;;0.30;0.30;;;13.60;99.90;;;;;;5031898;28;20025;-71
2022/10/10 13:03:00;;;;;;;0.30;0.30;;;13.60;99.90;;;;;;5031893;28;20486;-72
2022/10/10 13:05:30;;;;;;;0.30;0.30;;;13.70;99.90;;;;;;5029759;28;20116;-73
2022/10/10 13:08:03;;;;;;;0.30;0.30;;;13.70;99.90;;;;;;5031823;28;20487;-73
2022/10/10 13:10:30;;;;;;;0.30;0.30;;;13.70;99.90;;;;;;5031774;28;20064;-73
2022/10/10 13:13:00;;;;;;;;;;;13.70;99.90;;;;;;5031760;28;20095;-73
2022/10/10 13:15:26;;;;;;;0.40;0.40;;;13.70;99.90;;;;;;5031192;28;19913;-72
2022/10/10 13:17:51;;;;;;;0.40;0.40;;;13.70;99.90;;;;;;5039162;28;20043;-74
2022/10/10 13:20:28;;;;;;;0.40;0.40;;;13.70;99.90;;;;;;5050828;28;20037;-73
2022/10/10 13:22:55;;;;;;;0.40;0.40;;;13.70;99.90;;;;;;5049402;28;20483;-73
2022/10/10 13:25:22;;;;;;;;;;;13.70;99.90;;;;;;5050976;28;20480;-73
2022/10/10 13:27:48;;;;;;;0.30;0.30;;;13.70;99.90;;;;;;5050450;28;19904;-73
2022/10/10 13:30:22;;;;;;;0.40;0.40;;;13.70;99.90;;;;;;5030031;28;20052;-73
2022/10/10 13:32:49;;;;;;;0.30;0.30;;;13.60;99.90;;;;;;5030670;28;20017;-73
2022/10/10 13:35:20;;;;;;;0.30;0.30;;;13.60;99.90;;;;;;5031067;28;20116;-72
2022/10/10 13:37:50;;;;;;;0.30;0.30;;;13.70;99.90;;;;;;5030699;28;20037;-74
2022/10/10 13:40:17;;;;;;;0.30;0.30;;;13.50;99.90;;;;;;5029257;28;20083;-74
2022/10/10 13:42:46;;;;;;;0.50;0.50;;;13.40;99.90;;;;;;5030670;28;20025;-72
2022/10/10 13:45:21;;;;;;;0.35;0.35;;;13.40;99.90;;;;;;5030272;28;20044;-73
2022/10/10 13:48:11;;;;;;;0.30;0.30;;;13.40;99.90;;;;;;5030319;28;20037;-73
2022/10/10 13:50:42;;;;;;;0.30;0.30;;;13.40;99.90;;;;;;5031010;28;20365;-73
2022/10/10 13:53:43;;;;;;;1.20;1.15;;;12.90;99.90;;;;;;5031020;28;20057;-72
2022/10/10 13:56:15;;;;;;;0.40;0.40;;;13.20;99.90;;;;;;5028703;28;20041;-72
2022/10/10 13:58:47;;;;;;;0.30;0.30;;;13.30;99.90;;;;;;5030360;28;20044;-73
2022/10/10 14:01:38;;;;;;;0.30;0.30;;;12.70;99.90;;;;;;5030356;28;20195;-72
2022/10/10 14:04:04;;;;;;;0.30;0.30;;;;;;;;;;5029559;28;20041;-73
2022/10/10 14:06:30;;;;;;;0.40;0.40;;;;;;;;;;5029964;28;20044;-73
2022/10/10 14:09:20;;;;;;;0.30;0.30;;;13.10;99.90;;;;;;5030562;28;20373;-73
2022/10/10 14:11:49;;;;;;;0.30;0.30;;;13.20;99.90;;;;;;5028818;28;20480;-73
2022/10/10 14:14:24;;;;;;;0.30;0.30;;;13.10;99.90;;;;;;5029950;28;20037;-72
2022/10/10 14:16:58;;;;;;;0.30;0.30;;;13.10;99.90;;;;;;5028692;28;20041;-72
2022/10/10 14:19:23;;;;;;;0.30;0.30;;;13.10;99.90;;;;;;5030053;28;20035;-72
2022/10/10 14:21:49;;;;;;;0.40;0.40;;;13.00;99.90;;;;;;5028582;28;20041;-73
2022/10/10 14:24:15;;;;;;;0.30;0.30;;;;;;;;;;5028336;28;20040;-72
2022/10/10 14:26:41;;;;;;;0.30;0.30;;;12.90;99.90;;;;;;5031882;28;20025;-72
2022/10/10 14:29:14;;;;;;;0.30;0.30;;;12.60;99.90;;;;;;5020193;28;20324;-73
2022/10/10 14:31:40;;;;;;;0.30;0.30;;;12.50;99.90;;;;;;5030233;28;20400;-72
2022/10/10 14:34:08;;;;;;;1.55;1.45;;;12.20;99.90;;;;;;5029624;28;20461;-73
2022/10/10 14:36:39;;;;;;;0.30;0.30;;;12.80;99.90;;;;;;5029444;28;20121;-71
2022/10/10 14:39:05;;;;;;;0.30;0.30;;;12.80;99.90;;;;;;5029711;28;20181;-72
2022/10/10 14:41:30;;;;;;;0.70;0.70;;;12.70;99.90;;;;;;5030069;28;20088;-73
2022/10/10 14:43:56;;;;;;;0.40;0.40;;;12.70;99.90;;;;;;5045530;28;20080;-74
2022/10/10 14:46:21;;;;;;;0.40;0.40;;;12.60;99.90;;;;;;5048332;28;20033;-73
2022/10/10 14:48:47;;;;;;;0.30;0.30;;;;;;;;;;5049645;28;20127;-72
2022/10/10 14:51:13;;;;;;;0.30;0.30;;;13.00;99.90;;;;;;5049866;28;20033;-72
2022/10/10 14:53:39;;;;;;;0.30;0.30;;;12.50;99.90;;;;;;5048182;28;20029;-73
2022/10/10 14:56:05;;;;;;;0.40;0.40;;;12.50;99.90;;;;;;5048128;28;20425;-72
2022/10/10 14:58:31;;;;;;;0.30;0.30;;;12.50;99.90;;;;;;5049432;28;20033;-73
2022/10/10 15:00:56;;;;;;;0.40;0.40;;;12.50;99.90;;;;;;5047394;28;20456;-72
2022/10/10 15:03:22;;;;;;;0.40;0.40;;;12.40;99.90;;;;;;5049259;28;20475;-72
2022/10/10 15:05:49;;;;;;;0.30;0.30;;;12.50;99.90;;;;;;5048399;28;20044;-73
2022/10/10 15:08:16;;;;;;;;;;;12.30;99.90;;;;;;5052444;28;20025;-73
2022/10/10 15:10:43;;;;;;;0.70;0.70;;;12.30;99.90;;;;;;5053425;28;19912;-72
2022/10/10 15:13:12;;;;;;;0.30;0.30;;;12.30;99.90;;;;;;5051866;28;20024;-73
2022/10/10 15:15:38;;;;;;;0.43;0.43;;;12.30;99.90;;;;;;5053490;28;20074;-72
2022/10/10 15:18:04;;;;;;;0.30;0.30;;;12.10;99.90;;;;;;5051003;28;20029;-73
2022/10/10 15:20:29;;;;;;;0.40;0.40;;;12.20;99.90;;;;;;5053419;28;20041;-73
2022/10/10 15:23:01;;;;;;;0.40;0.40;;;12.10;99.90;;;;;;5053311;28;20608;-73
2022/10/10 15:25:27;;;;;;;0.40;0.40;;;12.10;99.90;;;;;;5051851;28;20427;-73
2022/10/10 15:27:53;;;;;;;0.43;0.43;;;12.10;99.90;;;;;;5043860;28;20083;-72
2022/10/10 15:30:19;;;;;;;0.30;0.30;;;12.00;99.90;;;;;;5033296;28;20079;-73
2022/10/10 15:32:45;;;;;;;0.40;0.40;;;12.00;99.90;;;;;;5033105;28;20030;-73
2022/10/10 15:35:16;;;;;;;0.60;0.60;;;11.90;99.90;;;;;;5033182;28;20041;-73
2022/10/10 15:37:41;;;;;;;0.30;0.30;;;11.90;99.90;;;;;;5034146;28;20055;-72
2022/10/10 15:40:08;;;;;;;0.50;0.50;;;11.90;99.90;;;;;;5043960;28;20485;-72
2022/10/10 15:42:33;;;;;;;0.40;0.40;;;;;;;;;;5032939;28;20109;-71
2022/10/10 15:44:59;;;;;;;0.30;0.30;;;;;;;;;;5032689;28;20136;-72
2022/10/10 15:47:25;;;;;;;0.40;0.40;;;;;;;;;;5033097;28;20038;-73
2022/10/10 15:49:51;;;;;;;0.40;0.40;;;;;;;;;;5032977;28;20511;-72
2022/10/10 15:52:18;;;;;;;0.30;0.30;;;11.80;99.90;;;;;;5051266;28;20029;-73
2022/10/10 15:54:47;;;;;;;0.40;0.40;;;11.80;99.90;;;;;;5052530;28;20037;-73
2022/10/10 15:57:13;;;;;;;0.30;0.30;;;11.80;99.90;;;;;;5052565;28;20459;-72
2022/10/10 15:59:39;;;;;;;0.73;0.45;;;11.70;99.90;;;;;;5051152;28;20433;-73
2022/10/10 16:02:05;;;;;;;0.40;0.40;;;11.70;99.90;;;;;;5051174;28;20064;-74
2022/10/10 16:04:30;;;;;;;0.50;0.50;;;11.60;99.90;;;;;;5052373;28;20025;-73
2022/10/10 16:06:56;;;;;;;0.40;0.40;;;12.00;99.90;;;;;;5050971;28;20103;-72
2022/10/10 16:09:21;;;;;;;0.30;0.30;;;11.60;99.90;;;;;;5051856;28;20029;-72
2022/10/10 16:11:47;;;;;;;0.40;0.40;;;;;;;;;;5052742;28;20119;-73
2022/10/10 16:14:13;;;;;;;0.30;0.30;;;11.70;99.90;;;;;;5052295;28;20025;-73
2022/10/10 16:16:39;;;;;;;0.40;0.40;;;;;;;;;;5051750;28;20037;-72
2022/10/10 16:19:05;;;;;;;0.40;0.40;;;11.40;99.90;;;;;;5052202;28;20020;-72
2022/10/10 16:21:32;;;;;;;0.30;0.30;;;12.20;99.90;;;;;;5052599;28;20289;-72
2022/10/10 16:23:59;;;;;;;0.30;0.30;;;11.70;99.90;;;;;;5051812;28;20028;-73
2022/10/10 16:26:31;;;;;;;1.42;0.60;;;11.60;99.90;;;;;;5050491;28;20322;-71
2022/10/10 16:28:58;;;;;;;0.50;0.50;;;11.60;99.90;;;;;;5018485;28;20026;-72
2022/10/10 16:31:24;;;;;;;0.52;0.52;;;;;;;;;;5012479;28;20038;-73
2022/10/10 16:33:50;;;;;;;0.65;0.60;;;11.40;99.90;;;;;;5012184;28;20080;-72
2022/10/10 16:36:22;;;;;;;0.30;0.30;;;;;;;;;;5011031;28;20041;-72
2022/10/10 16:38:49;;;;;;;0.40;0.40;;;11.30;99.90;;;;;;5012152;28;20252;-73
2022/10/10 16:41:16;;;;;;;4.65;1.10;;;11.40;99.90;;;;;;5015797;28;20057;-73
2022/10/10 16:43:45;;;;;;;0.75;0.75;;;14.00;99.90;;;;;;5032720;28;20448;-73
2022/10/10 16:46:13;;;;;;;0.30;0.30;;;11.10;99.90;;;;;;5042694;28;20499;-72
2022/10/10 16:48:39;;;;;;;0.30;0.30;;;11.10;99.90;;;;;;5031719;28;20018;-73
2022/10/10 16:51:11;;;;;;;1.13;0.75;;;11.10;99.90;;;;;;5031881;28;20061;-73
2022/10/10 16:53:37;;;;;;;0.85;0.85;;;11.10;99.90;;;;;;5031581;28;20052;-72
2022/10/10 16:56:06;;;;;;;0.35;0.35;;;11.10;99.90;;;;;;5031837;28;20068;-74
2022/10/10 16:58:32;;;;;;;0.30;0.30;;;11.10;99.90;;;;;;5035710;28;20107;-72
2022/10/10 17:00:58;;;;;;;0.95;0.88;;;11.10;99.90;;;;;;5051614;28;20037;-73
2022/10/10 17:03:24;;;;;;;0.60;0.60;;;11.10;99.90;;;;;;5051186;28;20550;-73
2022/10/10 17:06:06;;;;;;;0.30;0.30;;;11.10;99.90;;;;;;5051470;28;20033;-73
2022/10/10 17:08:32;;;;;;;0.43;0.43;;;11.00;99.90;;;;;;5051217;28;20272;-73
2022/10/10 17:10:58;;;;;;;0.50;0.50;;;11.00;99.90;;;;;;5051446;28;20471;-73
2022/10/10 17:13:25;;;;;;;0.40;0.40;;;10.80;99.90;;;;;;5051181;28;20016;-72
2022/10/10 17:15:51;;;;;;;0.50;0.50;;;10.90;99.90;;;;;;5050644;28;20138;-72
2022/10/10 17:18:17;;;;;;;0.40;0.40;;;10.90;99.90;;;;;;5051636;28;20028;-72
2022/10/10 17:20:44;;;;;;;1.13;0.95;;;10.60;99.90;;;;;;5051424;28;20045;-72
2022/10/10 17:23:11;;;;;;;0.30;0.30;;;11.10;99.90;;;;;;5050870;28;20029;-72
2022/10/10 17:25:46;;;;;;;1.75;0.70;;;10.30;99.90;;;;;;5049402;28;20043;-72
2022/10/10 17:28:13;;;;;;;0.40;0.40;;;10.40;99.90;;;;;;5028000;28;20033;-73
2022/10/10 17:30:39;;;;;;;;;;;;;;;;;;5011319;28;20041;-72
2022/10/10 17:33:04;;;;;;;0.40;0.40;;;10.60;99.90;;;;;;5019631;28;20055;-73
2022/10/10 17:35:30;;;;;;;0.40;0.40;;;;;;;;;;5029376;28;20477;-72
2022/10/10 17:37:56;;;;;;;0.40;0.40;;;10.60;99.90;;;;;;5029375;28;20045;-73
2022/10/10 17:40:22;;;;;;;0.30;0.30;;;10.70;99.90;;;;;;5030830;28;20373;-73
2022/10/10 17:42:48;;;;;;;0.50;0.50;;;10.70;99.90;;;;;;5030681;28;20025;-73
2022/10/10 17:45:14;;;;;;;0.50;0.50;;;10.70;99.90;;;;;;5030552;28;20077;-72
2022/10/10 17:47:40;;;;;;;0.43;0.43;;;10.70;99.90;;;;;;5030525;28;20029;-72
2022/10/10 17:50:07;;;;;;;0.40;0.40;;;10.60;99.90;;;;;;5031021;28;20325;-71
2022/10/10 17:52:33;;;;;;;0.30;0.30;;;10.60;99.90;;;;;;5029033;28;20044;-74
2022/10/10 17:54:58;;;;;;;0.40;0.40;;;10.60;99.90;;;;;;5031494;28;20038;-73
2022/10/10 17:57:24;;;;;;;0.50;0.50;;;10.70;99.90;;;;;;5040083;28;20106;-73
2022/10/10 17:59:52;;;;;;;0.47;0.47;;;10.60;99.90;;;;;;5029051;28;20025;-72
2022/10/10 18:02:18;;;;;;;0.50;0.50;;;10.60;99.90;;;;;;5030159;28;20484;-72
2022/10/10 18:04:44;;;;;;;0.57;0.57;;;10.60;99.90;;;;;;5030063;28;20075;-72
2022/10/10 18:07:12;;;;;;;0.30;0.30;;;10.50;99.90;;;;;;5039459;28;20469;-74
2022/10/10 18:09:37;;;;;;;0.30;0.30;;;11.00;99.90;;;;;;5049903;28;20082;-72
2022/10/10 18:12:05;;;;;;;0.30;0.30;;;11.00;99.90;;;;;;5050327;28;20029;-72
2022/10/10 18:14:31;;;;;;;0.52;0.52;;;10.50;99.90;;;;;;5050038;28;20111;-72
2022/10/10 18:16:57;;;;;;;0.40;0.40;;;;;;;;;;5050495;28;20112;-72
2022/10/10 18:19:23;;;;;;;0.30;0.30;;;;;;;;;;5048758;28;20503;-73
2022/10/10 18:21:49;;;;;;;0.60;0.60;;;10.60;99.90;;;;;;5048841;28;20285;-71
2022/10/10 18:24:16;;;;;;;0.40;0.40;;;;;;;;;;5047723;28;20037;-72
2022/10/10 18:26:43;;;;;;;0.35;0.35;;;10.10;99.90;;;;;;5049832;28;20071;-73
2022/10/10 18:29:08;;;;;;;0.60;0.60;;;10.60;99.90;;;;;;5013389;28;20026;-73
2022/10/10 18:31:35;;;;;;;0.90;0.90;;;10.60;99.90;;;;;;5010554;28;20037;-73
2022/10/10 18:34:02;;;;;;;0.50;0.50;;;11.00;99.90;;;;;;5009926;28;20030;-72
2022/10/10 18:36:30;;;;;;;0.40;0.40;;;10.60;99.90;;;;;;5010453;28;20117;-74
2022/10/10 18:38:58;;;;;;;0.40;0.40;;;11.30;99.90;;;;;;5010002;28;20034;-73
2022/10/10 18:41:26;;;;;;;0.40;0.40;;;10.60;99.90;;;;;;5022971;28;20056;-72
2022/10/10 18:43:54;;;;;;;0.50;0.50;;;10.50;99.90;;;;;;5029351;28;20029;-73
2022/10/10 18:46:21;;;;;;;0.77;0.77;;;;;;;;;;5029529;28;20038;-73
2022/10/10 18:48:47;;;;;;;0.50;0.50;;;11.20;99.90;;;;;;5028324;28;20112;-71
2022/10/10 18:51:21;;;;;;;0.98;0.88;;;10.60;99.90;;;;;;5028392;28;20065;-72
2022/10/10 18:53:47;;;;;;;0.40;0.40;;;;;;;;;;5028315;28;20048;-72
2022/10/10 18:56:17;;;;;;;0.40;0.40;;;10.50;99.90;;;;;;5028388;28;20030;-72
2022/10/10 18:58:43;;;;;;;0.30;0.30;;;10.60;99.90;;;;;;5030088;28;20029;-72
2022/10/10 19:01:10;;;;;;;4.67;0.80;;;10.50;99.90;;;;;;5029873;28;20034;-73
2022/10/10 19:03:37;;;;;;;0.57;0.57;;;10.00;99.90;;;;;;5029496;28;20561;-73
2022/10/10 19:06:04;;;;;;;0.50;0.50;;;10.40;99.90;;;;;;5030401;28;20121;-72
2022/10/10 19:08:33;;;;;;;0.60;0.60;;;;;;;;;;5039821;28;20527;-72
2022/10/10 19:10:58;;;;;;;0.30;0.30;;;10.30;99.90;;;;;;5028465;28;20036;-73
2022/10/10 19:13:24;;;;;;;1.50;0.70;;;10.30;99.90;;;;;;5029599;28;20022;-73
2022/10/10 19:15:51;;;;;;;0.30;0.30;;;10.30;99.90;;;;;;5043404;28;20567;-71
2022/10/10 19:18:17;;;;;;;0.40;0.40;;;10.30;99.90;;;;;;5031668;28;20052;-73
2022/10/10 19:20:43;;;;;;;0.40;0.40;;;;;;;;;;5049311;28;20037;-73
2022/10/10 19:23:10;;;;;;;0.50;0.50;;;9.90;99.90;;;;;;5047982;28;20125;-73
2022/10/10 19:25:37;;;;;;;0.40;0.40;;;9.90;99.90;;;;;;5048101;28;20045;-72
2022/10/10 19:28:04;;;;;;;0.50;0.40;;;9.90;99.90;;;;;;5030414;28;20022;-71
2022/10/10 19:30:30;;;;;;;0.40;0.40;;;10.40;99.90;;;;;;5008429;28;20417;-72
2022/10/10 19:32:57;;;;;;;0.60;0.60;;;10.30;99.90;;;;;;5026652;28;20034;-73
2022/10/10 19:35:23;;;;;;;0.40;0.40;;;10.40;99.90;;;;;;5029278;28;20037;-72
2022/10/10 19:37:48;;;;;;;1.23;1.13;;;10.30;99.90;;;;;;5011751;28;20087;-73
2022/10/10 19:40:14;;;;;;;0.40;0.40;;;12.40;99.90;;;;;;5027845;28;20049;-72
2022/10/10 19:42:39;;;;;;;0.40;0.40;;;10.20;99.90;;;;;;5029316;28;20071;-72
2022/10/10 19:45:05;;;;;;;0.50;0.50;;;10.40;99.90;;;;;;5028943;28;20054;-72
2022/10/10 19:47:31;;;;;;;0.40;0.40;;;;;;;;;;5029252;28;20021;-72
2022/10/10 19:49:57;;;;;;;1.13;1.07;;;10.20;99.90;;;;;;5028302;28;20022;-73
2022/10/10 19:52:23;;;;;;;0.40;0.40;;;;;;;;;;5030451;28;20091;-73
2022/10/10 19:54:49;;;;;;;0.47;0.47;;;;;;;;;;5031317;28;20018;-73
2022/10/10 19:57:15;;;;;;;0.40;0.40;;;;;;;;;;5032553;28;20801;-73
2022/10/10 19:59:41;;;;;;;0.30;0.30;;;;;;;;;;5032565;28;20342;-72
2022/10/10 20:02:09;;;;;;;0.40;0.40;;;10.00;99.90;;;;;;5031089;28;20443;-73
2022/10/10 20:04:35;;;;;;;1.35;0.93;;;10.10;99.90;;;;;;5032252;28;20388;-73
2022/10/10 20:07:01;;;;;;;0.40;0.40;;;10.30;99.90;;;;;;5031581;28;20028;-72
2022/10/10 20:09:28;;;;;;;0.30;0.30;;;;;;;;;;5031080;28;20029;-73